EDT,Max TemperatureF,Mean TemperatureF,Min TemperatureF,Max Dew PointF,MeanDew PointF,Min DewpointF,Max Humidity, Mean Humidity, Min Humidity, Max Sea Level PressureIn, Mean Sea Level PressureIn, Min Sea Level PressureIn, Max VisibilityMiles, Mean VisibilityMiles, Min VisibilityMiles, Max Wind SpeedMPH, Mean Wind SpeedMPH, Max Gust SpeedMPH,PrecipitationIn, CloudCover, Events, WindDirDegrees
2013-4-1,49,40,30,39,24,16,71,51,31,30.14,30.01,29.82,10,10,10,24,12,29,T,4,,315
2013-4-2,47,37,27,20,16,13,69,48,26,30.28,30.22,30.14,10,10,10,15,6,22,0.00,0,,305
2013-4-3,50,37,24,21,16,13,68,47,26,30.41,30.34,30.27,10,10,10,16,6,22,0.00,0,,54
2013-4-4,59,46,33,25,20,16,64,42,19,30.31,30.13,29.99,10,10,10,10,5,14,0.00,0,,78
2013-4-5,61,46,31,33,27,22,75,51,27,30.13,30.05,29.98,10,10,9,17,6,22,0.00,0,,360
2013-4-6,70,54,37,36,30,24,59,44,28,30.15,30.01,29.83,10,10,10,24,15,30,0.00,1,,146
2013-4-7,76,65,53,51,43,36,72,51,29,29.94,29.87,29.78,10,10,10,21,11,31,T,3,Rain,228
2013-4-8,73,65,57,55,52,50,86,68,49,29.95,29.88,29.83,10,10,10,28,12,33,T,6,Rain,193
2013-4-9,82,67,51,58,54,48,89,64,39,29.99,29.93,29.86,10,10,10,32,13,38,0.00,2,,177
2013-4-10,83,73,63,67,61,58,84,68,51,29.90,29.83,29.73,10,10,2,26,14,35,0.07,5,Rain-Thunderstorm,207
2013-4-11,67,59,51,61,57,51,97,88,78,29.78,29.63,29.53,10,8,2,23,12,30,0.44,7,Rain-Thunderstorm,225
2013-4-12,51,46,40,52,36,28,93,73,53,29.92,29.74,29.56,10,10,4,22,15,29,0.01,8,Rain,269
2013-4-13,55,47,39,36,33,30,76,61,46,30.01,29.96,29.93,10,10,10,25,12,32,0.00,6,,262
2013-4-14,72,55,38,46,40,33,79,57,35,30.01,29.92,29.81,10,10,10,20,11,25,T,2,Rain,137
2013-4-15,72,62,52,54,50,44,83,68,53,29.95,29.90,29.84,10,10,10,20,12,25,0.00,4,,174
2013-4-16,69,61,53,61,53,50,93,80,67,30.15,30.07,29.88,10,8,2,22,9,25,0.74,6,Rain-Thunderstorm,14
2013-4-17,75,63,51,67,55,48,89,81,73,30.18,30.09,29.89,10,9,4,21,12,26,0.39,6,Rain-Thunderstorm,96
2013-4-18,80,70,59,63,60,59,93,73,52,29.86,29.70,29.55,10,10,7,37,17,45,0.07,4,Rain-Thunderstorm,176
2013-4-19,58,48,38,60,38,29,93,75,57,29.98,29.68,29.52,10,8,2,29,17,38,0.56,8,Rain,267
2013-4-20,51,42,33,32,28,24,76,58,39,30.40,30.20,29.97,10,10,10,15,9,22,0.00,3,,293
2013-4-21,57,44,31,33,28,24,72,54,35,30.52,30.43,30.36,10,10,10,15,8,23,0.00,0,,86
2013-4-22,70,52,33,40,33,26,70,49,28,30.34,30.22,30.10,10,10,10,14,7,26,0.00,0,,116
2013-4-23,67,58,48,57,48,40,74,63,52,30.10,29.97,29.75,10,10,6,21,10,26,0.05,4,Rain,171
2013-4-24,60,48,36,56,42,31,100,80,60,30.22,29.93,29.77,10,8,2,22,11,28,0.70,7,Rain,299
2013-4-25,58,46,34,39,34,31,82,67,51,30.37,30.25,30.22,10,10,10,24,10,30,0.00,1,,208
2013-4-26,63,49,34,42,34,29,89,61,32,30.42,30.37,30.31,10,10,10,13,4,16,0.00,2,,125
2013-4-27,64,53,42,52,43,35,80,58,36,30.32,30.17,30.00,10,10,8,17,9,23,T,6,Rain,119
2013-4-28,64,60,55,57,54,52,93,86,78,29.96,29.86,29.82,10,8,2,15,9,18,0.24,8,Rain,182
2013-4-29,69,63,56,55,54,51,93,74,55,29.99,29.92,29.88,10,8,4,14,7,17,0.00,7,,226
2013-4-30,80,66,52,58,53,48,89,67,45,30.02,29.97,29.92,10,10,7,17,9,22,0.00,0,,157